Mason, TN (38049)

6:10 PM CDT on April 26, 2018 (GMT -0500)
Stanton City | | Change Station
Active Advisory: Flood Warning

Elev 325 ft 35.46 °N, 89.40 °W | Updated 16 seconds ago

Mostly Cloudy
Mostly Cloudy
63.5 °F
Feels Like 63.5 °F
N
0.0
Wind Variable Wind from NE
Gusts 0.0 mph

Today
High -- | Low -- °F
--% Chance of Precip.
Yesterday
High -- | Low -- °F
Precip. -- in
Pressure 29.90 in
Visibility 10.0 miles
Clouds Scattered Clouds 2700 ft
Mostly Cloudy 4300 ft
Mostly Cloudy 7000 ft
Dew Point 56 °F
Humidity 78%
Rainfall 1.22 in
Snow Depth Not available.
6:12 AM 7:40 PM
Waxing Gibbous, 90% visible
METAR KNQA 262250Z 33009KT 10SM SCT027 BKN043 BKN070 17/12 A2990
Pressure 29.90 in
Visibility 10.0 miles
Clouds Scattered Clouds 2700 ft
Mostly Cloudy 4300 ft
Mostly Cloudy 7000 ft
Dew Point 56 °F
Humidity 78%
Rainfall 1.22 in
Snow Depth Not available.
6:12 AM 7:40 PM
Waxing Gibbous, 90% visible
METAR KNQA 262250Z 33009KT 10SM SCT027 BKN043 BKN070 17/12 A2990

Get Your Daily Forecast Email!

Thanks for signing up!

Be on the lookout for a verification email in your inbox.

You'll start receiving severe weather alerts in your inbox..

×

10-Day Weather Forecast

Almanac

Astronomy

Apr. 26, 2018 Rise Set
Actual Time
Civil Twilight
Nautical Twilight
Astronomical Twilight
Moon
Length of Visible Light
Length of Day
Tomorrow will be .
, % of the Moon is Illuminated

Today's Extremes

State Highs State Lows

Community

WunderPhotos

Category 6

Welcome to Category 6. This is the collective home for Weather Underground's featured writeups by Dr. Jeff Masters (right), Bob Henson (left), Chris Burt, and other regular contributors.

Nearby

Air Quality

  Air Quality AQ Index Pollutant
Not available.

Snow Depth

Station Depth Elevation

Earthquake Activity

City Distance Mag. Time & Date
Minimum magnitude displayed is 2.5.

Coastal Water Temperatures

Place Temperature

Stations

Nearby Weather Stations

Station Location Temp. Windchill Dew Point Humidity Wind Precip. Elev Updated Type
                   

Watches & Warnings

Flood Warning
Issued: 10:57 AM CDT Apr. 26, 2018 – National Weather Service

The Flood Warning continues for
the Mississippi River at Osceola
* from Saturday April 28 until Saturday April 28.
* At 10 am Thursday the stage was 26.9 feet.
* Minor flooding is forecast.
* Maximum forecast stage of 28.0 feet on Saturday April 28.
* Flood stage is 28.0 feet.
* At 28.0 feet... in Tennessee, The Settlement south of cold Creek
Road down from Crawford Road is flooding. Crawford Road west is
flooding. The Reach-Coker Slough hunting Camp is flooding along Nix
Road. Grammer Road is flooded at Jones Slough. Much of the
Lauderdale south bottom is under water. Homesteads and camps on
Cash Road are cutoff. Sections of Crane Road are cutoff on island
35. In Arkansas, Mississippi County Road 903 north of O'Donnell
Bend is flooded at places.


Lat... Lon 3582 8996 3582 8956 3560 8979 3539 8995
      3539 9025